Have a Safe July 4th! 

Flight Track Log - Related Links

Times and Time Zones

All times are in EDT time to prevent confusion due to time zone crossing. See the SWA3677 flight status page for this flight to view local times or setup timezone preferences in your user account.

Time Position Orientation Groundspeed Altitude Reporting Facility
EDT Latitude Longitude Course Direction KTS MPH feet Rate Location/Type
Mon 10:45:20 AM 27.9667 -82.5500 204° Southwest 156 180 700  Level Tampa TRACON
Mon 10:46:09 AM 27.9333 -82.5667 204° Southwest 182 209 2,200 2,585 Climbing Tampa TRACON
Mon 10:48:28 AM 27.9494 -82.6294 286° West 122 140 8,800 2,714 Climbing Jacksonville Center
Mon 10:49:28 AM 28.0369 -82.6197 North 228 262 11,200 2,900 Climbing Jacksonville Center
Mon 10:50:28 AM 28.1372 -82.6078 North 313 360 14,600 3,150 Climbing Jacksonville Center
Mon 10:51:28 AM 28.2436 -82.5981 North 341 392 17,500 2,650 Climbing Jacksonville Center
Mon 10:52:28 AM 28.3542 -82.5836 North 377 434 19,900 2,250 Climbing Jacksonville Center
Mon 10:53:28 AM 28.4731 -82.5856 359° North 403 464 22,000 1,550 Climbing Jacksonville Center
Mon 10:54:28 AM 28.5900 -82.5875 359° North 413 475 23,000 1,250 Climbing Jacksonville Center
Mon 10:55:28 AM 28.7047 -82.5919 358° North 419 482 24,500 1,500 Climbing Jacksonville Center
Mon 10:56:28 AM 28.8217 -82.6106 352° North 419 482 26,000 750 Climbing Jacksonville Center
Mon 10:57:28 AM 28.9386 -82.6244 354° North 425 489 26,000 550 Level Jacksonville Center
Mon 10:58:28 AM 29.0575 -82.6408 353° North 425 489 27,100 1,400 Climbing Jacksonville Center
Mon 10:59:28 AM 29.1767 -82.6594 352° North 425 489 28,800 1,550 Climbing Jacksonville Center
Mon 11:00:28 AM 29.2997 -82.6758 353° North 425 489 30,200 1,600 Climbing Jacksonville Center
Mon 11:01:28 AM 29.4272 -82.6922 354° North 440 506 32,000 1,700 Climbing Jacksonville Center
Mon 11:02:28 AM 29.5567 -82.6944 359° North 452 520 33,600 1,500 Climbing Jacksonville Center
Mon 11:03:28 AM 29.6858 -82.6942 360° North 459 528 35,000 1,450 Climbing Jacksonville Center
Mon 11:04:28 AM 29.8175 -82.6939 360° North 459 528 36,500 1,500 Climbing Jacksonville Center
Mon 11:05:28 AM 29.9469 -82.6911 North 459 528 38,000 1,250 Climbing Jacksonville Center
Mon 11:06:28 AM 30.0742 -82.6742 North 454 522 39,000 500 Climbing Jacksonville Center
Mon 11:07:28 AM 30.1972 -82.6306 17° North 465 535 39,000  Level Jacksonville Center
Mon 11:08:28 AM 30.3247 -82.5844 17° North 465 535 39,000  Level Jacksonville Center
Mon 11:09:28 AM 30.4353 -82.5433 18° North 465 535 39,000  Level Jacksonville Center
Mon 11:10:28 AM 30.5583 -82.4994 17° North 465 535 39,000  Level Jacksonville Center
Mon 11:11:28 AM 30.6833 -82.4531 18° North 459 528 39,000  Level Jacksonville Center
Mon 11:12:28 AM 30.8042 -82.4064 18° North 459 528 39,000  Level Jacksonville Center
Mon 11:13:28 AM 30.9272 -82.3622 17° North 459 528 39,000  Level Jacksonville Center
Mon 11:14:28 AM 31.0481 -82.3081 21° North 459 528 39,000  Level Jacksonville Center
Mon 11:15:28 AM 31.1669 -82.2444 25° Northeast 464 534 39,000  Level Jacksonville Center
Mon 11:16:28 AM 31.2833 -82.1778 26° Northeast 464 534 39,000  Level Jacksonville Center
Mon 11:17:28 AM 31.4061 -82.1136 24° Northeast 469 540 39,000  Level Jacksonville Center
Mon 11:18:28 AM 31.5269 -82.0444 26° Northeast 469 540 39,000  Level Jacksonville Center
Mon 11:19:28 AM 31.6581 -81.9725 25° Northeast 462 532 39,000  Level Jacksonville Center
Mon 11:20:28 AM 31.7639 -81.9153 25° Northeast 462 532 39,000  Level Jacksonville Center
Mon 11:21:28 AM 31.8969 -81.8403 26° Northeast 467 537 39,000  Level Jacksonville Center
Mon 11:22:28 AM 32.0156 -81.7778 24° Northeast 462 532 39,000  Level Jacksonville Center
Mon 11:23:28 AM 32.1236 -81.7175 25° Northeast 469 540 39,000  Level Jacksonville Center
Mon 11:24:28 AM 32.2544 -81.6447 25° Northeast 464 534 39,000  Level Jacksonville Center
Mon 11:25:28 AM 32.3644 -81.5867 24° Northeast 468 539 39,000  Level Jacksonville Center
Mon 11:26:28 AM 32.4828 -81.5208 25° Northeast 468 539 39,000  Level Jacksonville Center
Mon 11:27:28 AM 32.6133 -81.4472 25° Northeast 463 533 39,000  Level Jacksonville Center
Mon 11:28:28 AM 32.7336 -81.3786 26° Northeast 463 533 39,000  Level Jacksonville Center
Mon 11:29:28 AM 32.8519 -81.3125 25° Northeast 463 533 39,000  Level Jacksonville Center
Mon 11:30:28 AM 32.9678 -81.2461 26° Northeast 463 533 39,000  Level Jacksonville Center
Mon 11:31:28 AM 33.0881 -81.1769 26° Northeast 463 533 39,000  Level Jacksonville Center
Mon 11:32:28 AM 33.2061 -81.1125 25° Northeast 463 533 39,000  Level Jacksonville Center
Mon 11:33:28 AM 33.3261 -81.0431 26° Northeast 468 539 39,000  Level Jacksonville Center
Mon 11:34:28 AM 33.4442 -80.9758 25° Northeast 468 539 39,000  Level Jacksonville Center
Mon 11:35:28 AM 33.5661 -80.9058 26° Northeast 463 533 39,000  Level Jacksonville Center
Mon 11:36:28 AM 33.6861 -80.8358 26° Northeast 463 533 39,000  Level Jacksonville Center
Mon 11:37:28 AM 33.8061 -80.7681 25° Northeast 463 533 39,000  Level Jacksonville Center
Mon 11:38:28 AM 33.9194 -80.6853 31° Northeast 463 533 39,000  Level Jacksonville Center
Mon 11:39:28 AM 34.0303 -80.5922 35° Northeast 473 544 39,000  Level Jacksonville Center
Mon 11:41:29 AM 34.2308 -80.4169 36° Northeast 466 536 39,000  Level Washington Center
Mon 11:42:29 AM 34.3389 -80.3228 36° Northeast 476 548 39,000  Level Washington Center
Mon 11:43:30 AM 34.4514 -80.2261 35° Northeast 481 554 39,000  Level Washington Center
Mon 11:44:29 AM 34.5594 -80.1286 37° Northeast 481 554 39,000  Level Washington Center
Mon 11:45:30 AM 34.6694 -80.0339 35° Northeast 481 554 39,000  Level Washington Center
Mon 11:46:30 AM 34.7836 -79.9364 35° Northeast 493 567 39,000  Level Washington Center
Mon 11:47:28 AM 34.8914 -79.8408 36° Northeast 488 562 39,000  Level Washington Center
Mon 11:48:29 AM 35.0033 -79.7428 36° Northeast 488 562 39,000  Level Washington Center
Mon 11:49:30 AM 35.1131 -79.6469 36° Northeast 488 562 39,000  Level Washington Center
Mon 11:50:29 AM 35.2144 -79.5400 41° Northeast 483 556 39,000  Level Washington Center
Mon 11:51:29 AM 35.3164 -79.4281 42° Northeast 478 550 39,000  Level Washington Center
Mon 11:52:29 AM 35.4289 -79.3008 43° Northeast 485 558 39,000  Level Washington Center
Mon 11:53:30 AM 35.5261 -79.1881 43° Northeast 485 558 39,000  Level Washington Center
Mon 11:54:28 AM 35.6256 -79.0750 43° Northeast 485 558 39,000  Level Washington Center
Mon 11:55:29 AM 35.7247 -78.9592 43° Northeast 485 558 39,000  Level Washington Center
Mon 11:56:29 AM 35.8261 -78.8431 43° Northeast 485 558 39,000  Level Washington Center
Mon 11:57:30 AM 35.9311 -78.7344 40° Northeast 485 558 39,000  Level Washington Center
Mon 11:58:30 AM 36.0422 -78.6411 34° Northeast 485 558 39,000  Level Washington Center
Mon 11:59:28 AM 36.1511 -78.5425 36° Northeast 485 558 39,000  Level Washington Center
Mon 12:00:29 PM 36.2619 -78.4436 36° Northeast 485 558 39,000  Level Washington Center
Mon 12:01:30 PM 36.3728 -78.3469 35° Northeast 480 552 39,000  Level Washington Center
Mon 12:02:30 PM 36.4814 -78.2503 36° Northeast 485 558 39,000  Level Washington Center
Mon 12:03:28 PM 36.5897 -78.1531 36° Northeast 485 558 39,000  Level Washington Center
Mon 12:04:29 PM 36.6836 -78.0603 38° Northeast 479 551 39,000  Level Washington Center
Mon 12:05:30 PM 36.7919 -77.9625 36° Northeast 479 551 39,000  Level Washington Center
Mon 12:06:28 PM 36.9003 -77.8619 37° Northeast 479 551 39,000  Level Washington Center
Mon 12:07:28 PM 37.0106 -77.7611 36° Northeast 479 551 39,000  Level Washington Center
Mon 12:08:28 PM 37.1167 -77.6600 37° Northeast 479 551 39,000  Level Washington Center
Mon 12:09:29 PM 37.2228 -77.5611 37° Northeast 479 551 39,000  Level Washington Center
Mon 12:10:29 PM 37.3286 -77.4619 37° Northeast 479 551 39,000  Level Washington Center
Mon 12:11:28 PM 37.4344 -77.3625 37° Northeast 479 551 39,000  Level Washington Center
Mon 12:12:29 PM 37.5400 -77.2603 38° Northeast 479 551 39,000  Level Washington Center
Mon 12:13:29 PM 37.6458 -77.1603 37° Northeast 479 551 39,000  Level Washington Center
Mon 12:14:30 PM 37.7533 -77.0575 37° Northeast 479 551 39,000  Level Washington Center
Mon 12:15:28 PM 37.8589 -76.9542 38° Northeast 479 551 39,000  Level Washington Center
Mon 12:16:28 PM 37.9642 -76.8533 37° Northeast 479 551 39,000  Level Washington Center
Mon 12:17:29 PM 38.0675 -76.7522 38° Northeast 479 551 39,000  Level Washington Center
Mon 12:18:29 PM 38.1747 -76.6483 37° Northeast 479 551 39,000  Level Washington Center
Mon 12:19:27 PM 38.2778 -76.5467 38° Northeast 474 545 39,000  Level Washington Center
Mon 12:20:28 PM 38.3933 -76.4342 37° Northeast 474 545 39,000  Level Washington Center
Mon 12:21:29 PM 38.4983 -76.3344 37° Northeast 474 545 39,000  Level Washington Center
Mon 12:22:30 PM 38.6031 -76.2292 38° Northeast 474 545 39,000  Level Washington Center
Mon 12:23:28 PM 38.7036 -76.1344 36° Northeast 474 545 39,000  Level Washington Center
Mon 12:24:28 PM 38.8103 -76.0311 37° Northeast 479 551 39,000  Level Washington Center
Mon 12:25:29 PM 38.9169 -75.9306 36° Northeast 485 558 39,000  Level Washington Center
Mon 12:26:28 PM 39.0194 -75.8186 40° Northeast 485 558 39,000  Level Washington Center
Mon 12:27:28 PM 39.1258 -75.7119 38° Northeast 485 558 39,000  Level Washington Center
Mon 12:28:29 PM 39.2322 -75.6078 37° Northeast 485 558 39,000  Level Washington Center
Mon 12:29:29 PM 39.3364 -75.5003 39° Northeast 485 558 39,000  Level Washington Center
Mon 12:30:29 PM 39.4406 -75.3928 39° Northeast 485 558 39,000  Level Washington Center
Mon 12:32:16 PM 39.6256 -75.2072 38° Northeast 475 547 39,000  Level New York Center
Mon 12:33:17 PM 39.7278 -75.0978 39° Northeast 469 540 39,000  Level New York Center
Mon 12:34:17 PM 39.8294 -74.9931 38° Northeast 469 540 39,000  Level New York Center
Mon 12:35:18 PM 39.9292 -74.8881 39° Northeast 459 528 39,000  Level New York Center
Mon 12:36:19 PM 40.0431 -74.7892 34° Northeast 452 520 39,000  Level New York Center
Mon 12:37:16 PM 40.1653 -74.7472 15° North 447 514 39,000  Level New York Center
Mon 12:38:17 PM 40.2858 -74.7000 17° North 455 524 39,000  Level New York Center
Mon 12:39:16 PM 40.4081 -74.6578 15° North 450 518 39,000  Level New York Center
Mon 12:40:16 PM 40.5261 -74.6153 15° North 445 512 39,000  Level New York Center
Mon 12:41:16 PM 40.6483 -74.5703 16° North 445 512 39,000  Level New York Center
Mon 12:42:17 PM 40.7706 -74.5250 16° North 445 512 39,000  Level New York Center
Mon 12:44:25 PM 41.0217 -74.4375 15° North 443 510 39,000  Level Boston Center
Mon 12:45:25 PM 41.1456 -74.3944 15° North 443 510 39,000  Level Boston Center
Mon 12:46:25 PM 41.2672 -74.3511 15° North 451 519 39,000  Level Boston Center
Mon 12:47:25 PM 41.3889 -74.3050 16° North 451 519 39,000  Level Boston Center
Mon 12:48:25 PM 41.5103 -74.2642 14° North 446 513 39,000  Level Boston Center
Mon 12:49:25 PM 41.6339 -74.2206 15° North 451 519 39,000 -750 Level Boston Center
Mon 12:50:25 PM 41.7536 -74.1739 16° North 451 519 37,500 -2,200 Descending Boston Center
Mon 12:51:25 PM 41.8814 -74.1297 14° North 437 503 34,600 -2,150 Descending Boston Center
Mon 12:52:25 PM 42.0069 -74.0858 15° North 437 503 33,200 -1,150 Descending Boston Center
Mon 12:53:25 PM 42.1328 -74.0358 16° North 447 514 32,300 -950 Descending Boston Center
Mon 12:54:25 PM 42.2544 -73.9911 15° North 452 520 31,300 -1,000 Descending Boston Center
Mon 12:55:25 PM 42.3269 -73.8528 55° Northeast 425 489 30,300 -1,000 Descending Boston Center
Mon 12:56:25 PM 42.3769 -73.6908 67° East 431 496 29,300 -1,000 Descending Boston Center
Mon 12:57:25 PM 42.4242 -73.5342 68° East 436 502 28,300 -1,050 Descending Boston Center
Mon 12:58:25 PM 42.4633 -73.3744 72° East 441 507 27,200 -1,050 Descending Boston Center
Mon 12:59:25 PM 42.4708 -73.2142 86° East 474 545 26,200 -1,000 Descending Boston Center
Mon 01:00:25 PM 42.4906 -73.0567 80° East 444 511 25,200 -1,300 Descending Boston Center
Mon 01:01:25 PM 42.5475 -72.9164 61° Northeast 414 476 23,600 -1,900 Descending Boston Center
Mon 01:02:25 PM 42.5958 -72.7758 65° Northeast 414 476 21,400 -2,150 Descending Boston Center
Mon 01:03:25 PM 42.6317 -72.6378 71° East 403 464 19,300 -1,850 Descending Boston Center
Mon 01:04:25 PM 42.6672 -72.5164 68° East 371 427 17,700 -1,900 Descending Boston Center
Mon 01:05:25 PM 42.7025 -72.3864 70° East 366 421 15,500 -2,300 Descending Boston Center
Mon 01:06:25 PM 42.7378 -72.2478 71° East 359 413 13,100 -2,200 Descending Boston Center
Mon 01:07:25 PM 42.7647 -72.1403 71° East 344 396 11,100 -1,600 Descending Boston Center
Mon 01:08:25 PM 42.8081 -72.0156 65° Northeast 331 381 9,900 -1,200 Descending Boston Center
Mon 01:09:25 PM 42.8619 -71.9472 43° Northeast 298 343 8,700 -1,300 Descending Boston Center
Mon 01:10:25 PM 42.9261 -71.8644 43° Northeast 289 333 7,300 -1,488 Descending Boston Center
Mon 01:11:26 PM 42.9653 -71.7875 55° Northeast 279 321 5,700 -1,550 Descending Boston Center
Mon 01:12:25 PM 42.9919 -71.6822 71° East 261 300 4,200 -1,261 Descending Boston Center
Mon 01:13:25 PM 43.0081 -71.6083 73° East 238 274 3,200 -1,000 Descending Boston Center
Mon 01:14:25 PM 43.0261 -71.5256 73° East 217 250 2,200 -750 Descending Boston Center
Mon 01:15:25 PM 43.0069 -71.4806 120° Southeast 154 177 1,700 -639 Descending Boston Center
Mon 01:16:27 PM 42.9672 -71.4556 155° Southeast 135 155 900 -650 Descending Boston Center
Mon 01:17:25 PM 42.9358 -71.4333 153° Southeast 135 155 400 16,322 Descending Boston Center
Mon 01:18:25 PM 42.9000 -71.4114 156° South 135 155 33,000 16,300 Climbing Boston Center
Mon 01:19:25 PM 42.8625 -71.3919 159° South 135 155 33,000  Level Boston Center
Mon 01:20:25 PM 42.8267 -71.3700 156° South 135 155 33,000  Level Boston Center
Mon 01:22:00 PM 42.9167 -71.4333 334° Northwest  Level FlightAware Approximate
Mon 01:29:00 PM 42.9328 -71.4358 334° Northwest  Level Estimated
Mon 01:30:00 PM 42.9328 -71.4358 334° Northwest  Level Estimated
Mon 01:31:00 PM 42.9328 -71.4358 334° Northwest  Level Estimated
Mon 01:32:00 PM 42.9328 -71.4358 334° Northwest  Level Estimated
Mon 01:33:00 PM 42.9328 -71.4358 334° Northwest  Level Estimated
Mon 01:34:00 PM 42.9328 -71.4358 334° Northwest  Level Estimated

Login

Don't have an account? Register now (free) for customized features, flight alerts, and more!